Time;durP1;ratioP1;P1;durP2;ratioP2;P2;SDS_P1;SDS_P2;PMS_P1;PMS_P2;Temp;Humidity;BMP_temperature;BMP_pressure;BME280_temperature;BME280_humidity;BME280_pressure;Samples;Min_cycle;Max_cycle;Signal;HPM_P1;HPM_P2
2023/12/13 00:02:01;;;;;;;10.47;9.57;;;;;;;21.96;32.02;94835.19;6161106;28;109838;-60
2023/12/13 00:05:05;;;;;;;10.73;9.73;;;;;;;21.97;32.47;94837.53;6157721;28;108746;-60
2023/12/13 00:08:10;;;;;;;10.40;9.40;;;;;;;21.95;32.48;94842.38;6140843;28;109423;-60
2023/12/13 00:11:13;;;;;;;9.60;8.70;;;;;;;21.94;32.53;94824.84;6160652;28;109110;-59
2023/12/13 00:14:17;;;;;;;10.50;9.50;;;;;;;21.92;32.10;94819.03;6160909;28;110332;-62
2023/12/13 00:17:20;;;;;;;9.70;8.80;;;;;;;21.93;32.67;94823.25;6149897;28;109086;-60
2023/12/13 00:20:23;;;;;;;10.30;9.20;;;;;;;21.93;32.31;94833.91;6150484;28;110972;-60
2023/12/13 00:23:27;;;;;;;10.37;9.37;;;;;;;21.91;32.17;94844.09;6157093;28;109644;-61
2023/12/13 00:26:31;;;;;;;9.80;8.90;;;;;;;21.89;32.33;94838.31;6153492;28;109486;-59
2023/12/13 00:29:34;;;;;;;9.13;8.33;;;;;;;21.90;32.38;94839.88;6154996;28;109278;-60
2023/12/13 00:32:37;;;;;;;9.23;8.33;;;;;;;21.89;32.10;94832.19;6135749;28;110488;-59
2023/12/13 00:35:40;;;;;;;8.93;8.13;;;;;;;21.91;32.42;94832.66;6147561;28;109900;-59
2023/12/13 00:38:45;;;;;;;8.83;8.03;;;;;;;21.90;32.24;94829.22;6155361;28;109133;-60
2023/12/13 00:41:48;;;;;;;9.03;8.23;;;;;;;21.90;32.03;94823.88;6137016;28;109141;-60
2023/12/13 00:44:51;;;;;;;8.20;7.43;;;;;;;21.92;32.43;94813.69;6148867;28;110212;-60
2023/12/13 00:47:54;;;;;;;8.50;7.70;;;;;;;21.93;32.38;94828.59;6153211;28;109587;-60
2023/12/13 00:50:57;;;;;;;8.17;7.37;;;;;;;21.93;32.30;94817.94;6156400;28;109082;-60
2023/12/13 00:54:02;;;;;;;8.20;7.40;;;;;;;21.92;32.01;94808.38;6142290;28;110150;-61
2023/12/13 00:57:06;;;;;;;8.20;7.40;;;;;;;21.93;32.32;94815.28;6157741;28;109441;-60
2023/12/13 01:00:11;;;;;;;7.07;6.43;;;;;;;21.91;32.41;94801.47;6160486;28;111328;-64
2023/12/13 01:03:14;;;;;;;8.07;7.37;;;;;;;21.92;31.93;94803.03;6146884;28;109506;-59
2023/12/13 01:06:18;;;;;;;7.53;6.83;;;;;;;21.90;32.08;94785.81;6148449;28;109245;-60
2023/12/13 01:09:22;;;;;;;7.80;7.10;;;;;;;21.90;32.14;94783.16;6160069;28;109431;-68
2023/12/13 01:12:26;;;;;;;7.60;6.90;;;;;;;21.90;32.18;94783.16;6141784;28;109343;-60
2023/12/13 01:15:29;;;;;;;7.13;6.53;;;;;;;21.89;32.48;94768.25;6134016;28;109702;-60
2023/12/13 01:18:33;;;;;;;7.67;6.97;;;;;;;21.88;31.94;94761.38;6155172;28;109066;-59
2023/12/13 01:21:36;;;;;;;7.43;6.73;;;;;;;21.89;31.95;94749.59;6151142;28;109004;-60
2023/12/13 01:24:41;;;;;;;7.60;6.90;;;;;;;21.90;32.23;94746.63;6144428;28;109629;-60
2023/12/13 01:27:44;;;;;;;7.23;6.53;;;;;;;21.88;32.22;94738.16;6140014;28;109158;-59
2023/12/13 01:30:47;;;;;;;7.90;7.10;;;;;;;21.88;31.90;94732.84;6153052;28;110178;-60
2023/12/13 01:33:50;;;;;;;7.50;6.80;;;;;;;21.87;31.80;94725.94;6137253;28;110033;-60
2023/12/13 01:36:53;;;;;;;7.70;7.00;;;;;;;21.89;32.16;94738.94;6152372;28;109043;-60
2023/12/13 01:39:58;;;;;;;7.00;6.37;;;;;;;21.88;31.87;94753.38;6153595;28;109304;-60
2023/12/13 01:43:01;;;;;;;8.23;7.33;;;;;;;21.87;31.74;94749.91;6165322;28;110091;-60
2023/12/13 01:46:04;;;;;;;7.47;6.87;;;;;;;21.88;31.92;94772.03;6150575;28;109463;-60
2023/12/13 01:49:08;;;;;;;8.10;7.30;;;;;;;21.88;32.20;94756.81;6158835;28;110953;-60
2023/12/13 01:52:12;;;;;;;8.07;7.37;;;;;;;21.88;31.94;94756.81;6157958;28;109358;-60
2023/12/13 01:55:17;;;;;;;7.50;6.83;;;;;;;21.88;31.86;94748.81;6161648;28;109328;-60
2023/12/13 01:58:21;;;;;;;7.90;7.20;;;;;;;21.85;32.16;94725.47;6162407;28;110063;-66
2023/12/13 02:01:25;;;;;;;8.20;7.40;;;;;;;21.87;32.16;94727.81;6153573;28;111958;-59
2023/12/13 02:04:29;;;;;;;8.40;7.70;;;;;;;21.86;32.07;94740.38;6159788;28;109012;-59
2023/12/13 02:07:32;;;;;;;7.70;7.00;;;;;;;21.86;31.98;94737.69;6155659;28;109457;-60
2023/12/13 02:10:38;;;;;;;7.80;7.10;;;;;;;21.86;32.03;94729.72;6160243;28;109087;-60
2023/12/13 02:13:42;;;;;;;7.73;7.03;;;;;;;21.85;32.17;94717.50;6152511;28;109084;-60
2023/12/13 02:16:45;;;;;;;7.07;6.47;;;;;;;21.85;32.01;94714.03;6156983;28;109153;-59
2023/12/13 02:19:48;;;;;;;7.63;6.93;;;;;;;21.85;31.96;94704.16;6159494;28;109074;-60
2023/12/13 02:22:53;;;;;;;7.87;7.07;;;;;;;21.84;32.06;94691.91;6163368;28;109675;-59
2023/12/13 02:25:58;;;;;;;8.20;7.40;;;;;;;21.85;32.01;94688.19;6130851;28;109445;-59
2023/12/13 02:29:02;;;;;;;8.53;7.73;;;;;;;21.86;31.96;94688.97;6148670;28;109227;-60
2023/12/13 02:32:05;;;;;;;7.93;7.20;;;;;;;21.86;31.90;94703.06;6138463;28;109298;-60
2023/12/13 02:35:09;;;;;;;8.10;7.40;;;;;;;21.85;31.88;94698.84;6140604;28;109403;-59
2023/12/13 02:38:13;;;;;;;8.10;7.40;;;;;;;21.86;31.71;94705.75;6157820;28;109927;-59
2023/12/13 02:41:17;;;;;;;8.40;7.50;;;;;;;21.86;32.00;94703.06;6161605;28;109124;-59
2023/12/13 02:44:20;;;;;;;8.00;7.20;;;;;;;21.87;32.05;94671.88;6148476;28;109193;-59
2023/12/13 02:47:25;;;;;;;7.97;7.27;;;;;;;21.86;31.78;94649.78;6149056;28;109670;-59
2023/12/13 02:50:28;;;;;;;8.30;7.57;;;;;;;21.86;32.14;94631.16;6162102;28;109186;-58
2023/12/13 02:53:32;;;;;;;7.77;7.10;;;;;;;21.86;32.05;94654.34;6147919;28;109460;-58
2023/12/13 02:56:35;;;;;;;8.20;7.40;;;;;;;21.86;31.61;94667.66;6140571;28;109177;-59
2023/12/13 02:59:39;;;;;;;8.40;7.60;;;;;;;21.85;31.73;94672.22;6129048;28;109856;-59
2023/12/13 03:02:41;;;;;;;8.23;7.43;;;;;;;21.85;31.52;94677.53;6143715;28;109088;-59
2023/12/13 03:05:45;;;;;;;8.20;7.50;;;;;;;21.84;31.70;94675.16;6144689;28;110026;-59
2023/12/13 03:08:49;;;;;;;8.33;7.63;;;;;;;21.84;32.05;94678.59;6154296;28;109192;-59
2023/12/13 03:11:52;;;;;;;8.10;7.40;;;;;;;21.84;31.91;94675.16;6154961;28;109181;-59
2023/12/13 03:14:55;;;;;;;7.83;7.13;;;;;;;21.84;31.97;94675.94;6148148;28;109142;-59
2023/12/13 03:17:58;;;;;;;8.57;7.77;;;;;;;21.86;31.79;94657.78;6162028;28;110264;-59
2023/12/13 03:21:01;;;;;;;8.53;7.73;;;;;;;21.85;31.60;94660.78;6153510;28;109665;-59
2023/12/13 03:24:06;;;;;;;9.20;8.40;;;;;;;21.89;31.93;94667.81;6157433;28;109127;-60
2023/12/13 03:27:09;;;;;;;8.17;7.37;;;;;;;21.94;31.57;94683.63;6143131;28;109231;-59
2023/12/13 03:30:12;;;;;;;8.07;7.27;;;;;;;21.97;31.56;94695.53;6138764;28;109240;-59
2023/12/13 03:33:16;;;;;;;8.23;7.53;;;;;;;21.95;31.90;94695.84;6143915;28;109089;-59
2023/12/13 03:36:19;;;;;;;7.80;7.10;;;;;;;21.96;31.69;94699.31;6150628;28;109448;-59
2023/12/13 03:39:24;;;;;;;7.67;7.03;;;;;;;21.97;31.70;94676.88;6161672;28;109270;-59
2023/12/13 03:42:27;;;;;;;8.67;7.83;;;;;;;21.94;32.02;94688.97;6157842;28;109223;-59
2023/12/13 03:45:30;;;;;;;7.63;6.93;;;;;;;21.95;31.94;94685.19;6147255;28;109263;-60
2023/12/13 03:48:33;;;;;;;7.70;7.00;;;;;;;21.97;31.99;94709.66;6143848;28;109429;-59
2023/12/13 03:51:37;;;;;;;8.77;7.70;;;;;;;21.97;32.06;94708.84;6144321;28;109571;-59
2023/12/13 03:54:41;;;;;;;8.50;7.70;;;;;;;21.97;31.75;94695.53;6145323;28;109255;-59
2023/12/13 03:57:44;;;;;;;7.80;7.20;;;;;;;21.94;31.66;94691.63;6147399;28;109293;-59
2023/12/13 04:00:47;;;;;;;8.60;7.70;;;;;;;21.94;32.14;94682.84;6159696;28;109370;-59
2023/12/13 04:03:51;;;;;;;8.27;7.43;;;;;;;21.94;32.36;94691.63;6156874;28;109202;-59
2023/12/13 04:06:54;;;;;;;7.57;6.90;;;;;;;21.97;32.01;94695.53;6133647;28;110265;-60
2023/12/13 04:09:58;;;;;;;7.10;6.50;;;;;;;22.03;32.17;94668.44;6154754;28;109257;-59
2023/12/13 04:13:02;;;;;;;7.23;6.50;;;;;;;22.14;31.68;94663.56;6148158;28;109492;-59
2023/12/13 04:16:05;;;;;;;17.80;16.20;;;;;;;22.28;31.86;94658.06;6155327;28;109163;-59
2023/12/13 04:19:09;;;;;;;67.77;61.97;;;;;;;22.39;33.07;94667.31;6149466;28;109256;-61
2023/12/13 04:22:12;;;;;;;58.37;53.17;;;;;;;22.47;33.05;94669.16;6141627;28;109091;-60
2023/12/13 04:25:16;;;;;;;59.00;53.70;;;;;;;22.52;33.02;94653.00;6154619;28;109128;-59
2023/12/13 04:28:20;;;;;;;59.27;54.27;;;;;;;22.59;32.46;94664.00;6143154;28;109423;-60
2023/12/13 04:31:23;;;;;;;57.47;52.50;;;;;;;22.64;32.59;94639.81;6148855;28;110020;-59
2023/12/13 04:34:26;;;;;;;52.43;47.63;;;;;;;22.61;32.41;94632.44;6151359;28;109786;-59
2023/12/13 04:37:29;;;;;;;51.60;47.03;;;;;;;22.61;32.54;94640.47;6148749;28;109091;-59
2023/12/13 04:40:34;;;;;;;48.70;44.30;;;;;;;22.54;33.00;94608.16;6148608;28;109030;-59
2023/12/13 04:43:37;;;;;;;44.60;40.90;;;;;;;22.56;32.73;94631.81;6150686;28;109060;-59
2023/12/13 04:46:41;;;;;;;40.93;37.20;;;;;;;22.58;32.71;94617.09;6144775;28;109303;-58
2023/12/13 04:49:44;;;;;;;40.80;37.20;;;;;;;22.63;33.13;94626.81;6158997;28;109255;-59
2023/12/13 04:52:47;;;;;;;36.70;33.20;;;;;;;22.62;32.60;94644.69;6147946;28;111141;-59
2023/12/13 04:55:51;;;;;;;35.40;32.20;;;;;;;22.57;33.12;94642.19;6149288;28;111620;-59
2023/12/13 04:58:55;;;;;;;33.47;30.50;;;;;;;22.60;32.96;94617.56;6146146;28;109949;-58
2023/12/13 05:01:59;;;;;;;31.60;28.90;;;;;;;22.59;32.78;94626.66;6150164;28;109188;-58
2023/12/13 05:05:02;;;;;;;16.67;15.03;;;;;;;21.92;31.60;94639.75;6140157;28;111886;-58
2023/12/13 05:08:11;;;;;;;17.60;16.10;;;;;;;21.44;30.98;94624.66;6146672;28;109062;-58
2023/12/13 05:11:16;;;;;;;18.17;16.57;;;;;;;21.15;31.06;94622.56;6141152;28;110168;-58
2023/12/13 05:14:19;;;;;;;18.33;16.53;;;;;;;21.15;31.49;94619.91;6150094;28;109456;-58
2023/12/13 05:17:22;;;;;;;16.47;14.87;;;;;;;21.69;31.30;94591.19;6145407;28;108791;-59
2023/12/13 05:20:25;;;;;;;14.90;13.40;;;;;;;21.95;30.31;94581.28;6164902;28;109179;-59
2023/12/13 05:23:29;;;;;;;14.63;13.27;;;;;;;22.10;30.36;94566.69;6152860;28;108836;-59
2023/12/13 05:26:33;;;;;;;13.43;12.10;;;;;;;22.10;30.17;94567.47;6153450;28;109884;-59
2023/12/13 05:29:37;;;;;;;14.57;13.27;;;;;;;22.06;30.38;94553.22;6163653;28;108855;-59
2023/12/13 05:32:40;;;;;;;13.40;12.20;;;;;;;22.06;31.06;94561.22;6163573;28;109520;-59
2023/12/13 05:35:43;;;;;;;13.93;12.63;;;;;;;22.05;30.62;94554.34;6144966;28;109216;-59
2023/12/13 05:38:46;;;;;;;13.30;12.00;;;;;;;22.04;30.72;94590.06;6128965;28;109189;-59
2023/12/13 05:41:51;;;;;;;14.07;12.67;;;;;;;22.02;31.05;94586.94;6139799;28;109236;-58
2023/12/13 05:44:54;;;;;;;12.50;11.50;;;;;;;21.98;31.00;94601.97;6157666;28;110254;-58
2023/12/13 05:47:58;;;;;;;13.73;11.80;;;;;;;21.96;31.50;94614.84;6159801;28;110015;-58
2023/12/13 05:51:01;;;;;;;13.20;12.00;;;;;;;21.96;31.25;94614.84;6158233;28;109026;-59
2023/12/13 05:54:04;;;;;;;13.57;12.30;;;;;;;21.95;31.41;94602.59;6152981;28;109262;-58
2023/12/13 05:57:09;;;;;;;12.50;11.40;;;;;;;21.93;31.35;94623.47;6151101;28;109611;-58
2023/12/13 06:00:13;;;;;;;12.27;11.10;;;;;;;21.91;31.40;94620.31;6129346;28;108891;-58
2023/12/13 06:03:16;;;;;;;12.50;11.30;;;;;;;21.92;31.35;94618.44;6139355;28;110221;-59
2023/12/13 06:06:20;;;;;;;11.93;10.73;;;;;;;21.92;31.73;94599.81;6160949;28;110621;-57
2023/12/13 06:09:23;;;;;;;11.50;10.30;;;;;;;21.90;31.66;94581.47;6162831;28;109533;-58
2023/12/13 06:12:28;;;;;;;11.37;10.37;;;;;;;21.90;31.81;94580.69;6153290;28;110224;-59
2023/12/13 06:15:32;;;;;;;11.00;10.00;;;;;;;21.90;31.75;94604.66;6145571;28;109048;-59
2023/12/13 06:18:35;;;;;;;11.53;10.53;;;;;;;21.90;31.50;94602.78;6138770;28;109102;-59
2023/12/13 06:21:38;;;;;;;11.47;10.47;;;;;;;21.89;31.86;94617.19;6138275;28;109926;-59
2023/12/13 06:24:41;;;;;;;11.20;10.20;;;;;;;21.90;31.52;94591.34;6128674;28;109154;-59
2023/12/13 06:27:46;;;;;;;12.20;11.00;;;;;;;21.91;31.38;94574.25;6141081;28;109257;-59
2023/12/13 06:30:49;;;;;;;11.50;10.50;;;;;;;21.88;31.54;94578.34;6138266;28;109119;-59
2023/12/13 06:33:52;;;;;;;11.57;10.57;;;;;;;21.87;31.59;94555.47;6132552;28;109348;-59
2023/12/13 06:36:55;;;;;;;12.20;11.00;;;;;;;21.85;31.86;94570.19;6143340;28;110126;-58
2023/12/13 06:39:58;;;;;;;11.40;10.50;;;;;;;21.92;31.95;94586.47;6144748;28;108913;-58
2023/12/13 06:43:04;;;;;;;11.17;10.27;;;;;;;21.90;31.76;94578.03;6150956;28;109147;-58
2023/12/13 06:46:07;;;;;;;11.33;10.30;;;;;;;21.91;31.72;94577.72;6126106;28;109316;-59
2023/12/13 06:49:10;;;;;;;11.30;10.30;;;;;;;21.87;32.30;94560.00;6149738;28;109050;-59
2023/12/13 06:52:13;;;;;;;10.87;9.87;;;;;;;21.87;32.42;94563.47;6163406;28;110196;-59
2023/12/13 06:55:17;;;;;;;10.77;9.70;;;;;;;21.87;32.12;94547.47;6159926;28;109032;-59
2023/12/13 06:58:22;;;;;;;10.63;9.63;;;;;;;21.85;32.47;94517.72;6151493;28;109089;-59
2023/12/13 07:01:26;;;;;;;11.27;10.27;;;;;;;21.86;31.99;94532.59;6161778;28;109032;-59
2023/12/13 07:04:31;;;;;;;11.13;10.13;;;;;;;21.87;32.03;94534.16;6158161;28;109064;-59
2023/12/13 07:07:34;;;;;;;10.90;9.90;;;;;;;21.89;32.21;94539.94;6145386;28;109122;-60
2023/12/13 07:10:38;;;;;;;11.30;10.30;;;;;;;21.90;31.97;94564.69;6132394;28;109307;-60
2023/12/13 07:13:43;;;;;;;11.80;10.70;;;;;;;21.90;32.06;94560.16;6140687;28;109189;-59
2023/12/13 07:16:46;;;;;;;11.57;10.63;;;;;;;21.90;32.51;94546.84;6154866;28;109510;-59
2023/12/13 07:19:49;;;;;;;12.07;10.97;;;;;;;21.93;32.45;94553.41;6127446;28;109421;-59
2023/12/13 07:22:53;;;;;;;10.77;9.87;;;;;;;21.94;31.95;94552.31;6138548;28;109440;-59
2023/12/13 07:25:56;;;;;;;10.73;9.73;;;;;;;21.92;32.53;94549.97;6157039;28;110459;-59
2023/12/13 07:29:02;;;;;;;11.20;10.20;;;;;;;21.90;32.47;94538.84;6161940;28;109096;-59
2023/12/13 07:32:08;;;;;;;10.97;10.07;;;;;;;21.95;32.19;94561.88;6150310;28;109251;-58
2023/12/13 07:35:11;;;;;;;11.87;10.80;;;;;;;21.97;31.96;94565.00;6153992;28;109267;-59
2023/12/13 07:38:15;;;;;;;11.37;10.30;;;;;;;21.98;31.90;94554.03;6143945;28;108772;-58
2023/12/13 07:41:18;;;;;;;12.00;10.87;;;;;;;21.98;32.29;94556.69;6137447;28;109578;-58
2023/12/13 07:44:22;;;;;;;11.40;10.30;;;;;;;21.98;32.34;94550.56;6128796;28;110069;-58
2023/12/13 07:47:26;;;;;;;12.63;11.43;;;;;;;21.96;32.02;94550.88;6137675;28;109149;-58
2023/12/13 07:50:29;;;;;;;12.57;11.37;;;;;;;21.95;32.30;94538.66;6156319;28;109475;-58
2023/12/13 07:53:33;;;;;;;11.67;10.57;;;;;;;21.95;32.27;94533.34;6152945;28;109260;-58
2023/12/13 07:56:36;;;;;;;11.47;10.47;;;;;;;21.96;31.99;94529.56;6131695;28;109123;-59
2023/12/13 07:59:40;;;;;;;12.37;11.27;;;;;;;21.98;32.26;94553.25;6147598;28;109188;-60
2023/12/13 08:02:43;;;;;;;11.80;10.80;;;;;;;21.97;32.58;94551.66;6137014;28;108898;-58
2023/12/13 08:05:49;;;;;;;13.50;12.20;;;;;;;21.96;32.46;94550.09;6127237;28;109521;-59
2023/12/13 08:08:52;;;;;;;13.17;12.00;;;;;;;21.98;32.35;94558.56;6141044;28;109155;-58
2023/12/13 08:11:55;;;;;;;12.60;11.40;;;;;;;21.98;32.29;94563.91;6161141;28;109094;-59
2023/12/13 08:14:59;;;;;;;12.67;11.57;;;;;;;21.98;32.28;94566.56;6147255;28;109128;-58
2023/12/13 08:18:03;;;;;;;13.03;11.90;;;;;;;21.95;31.98;94560.00;6132692;28;109320;-58
2023/12/13 08:21:07;;;;;;;12.20;11.10;;;;;;;21.95;32.07;94544.00;6139153;28;109324;-58
2023/12/13 08:24:10;;;;;;;13.30;12.07;;;;;;;21.93;32.28;94524.88;6148163;28;111437;-58
2023/12/13 08:27:14;;;;;;;13.50;12.30;;;;;;;21.93;32.35;94514.22;6156330;28;110447;-59
2023/12/13 08:30:18;;;;;;;13.30;12.10;;;;;;;21.92;32.47;94523.31;6141959;28;110076;-59
2023/12/13 08:33:21;;;;;;;13.67;12.33;;;;;;;21.94;32.31;94531.78;6157188;28;110061;-59
2023/12/13 08:36:25;;;;;;;14.43;13.10;;;;;;;21.92;32.40;94527.88;6135025;28;109111;-58
2023/12/13 08:39:28;;;;;;;13.30;12.00;;;;;;;21.92;32.30;94530.53;6134063;28;109009;-59
2023/12/13 08:42:31;;;;;;;14.60;13.30;;;;;;;21.93;32.02;94548.88;6148586;28;109502;-58
2023/12/13 08:45:45;;;;;;;14.93;13.60;;;;;;;21.87;32.07;94549.34;6150602;28;109936;-59
2023/12/13 08:48:48;;;;;;;13.97;12.67;;;;;;;21.88;32.28;94541.06;6159093;28;112435;-59
2023/12/13 08:51:52;;;;;;;14.90;13.50;;;;;;;21.86;32.26;94532.59;6125786;28;109976;-59
2023/12/13 08:54:55;;;;;;;13.60;12.40;;;;;;;21.87;32.58;94542.16;6144269;28;109126;-59
2023/12/13 08:57:58;;;;;;;13.80;12.67;;;;;;;21.86;32.20;94532.59;6160310;28;109220;-59
2023/12/13 09:01:03;;;;;;;15.60;14.20;;;;;;;21.87;32.46;94539.47;6159886;28;109095;-59
2023/12/13 09:04:06;;;;;;;15.03;13.73;;;;;;;21.87;32.30;94536.81;6141690;28;109072;-59
2023/12/13 09:07:10;;;;;;;14.07;12.87;;;;;;;21.86;32.09;94548.56;6142884;28;109069;-59
2023/12/13 09:10:13;;;;;;;13.33;12.17;;;;;;;21.89;32.58;94528.50;6159586;28;109117;-59
2023/12/13 09:13:16;;;;;;;14.17;12.87;;;;;;;21.90;32.48;94516.75;6151699;28;109874;-60
2023/12/13 09:16:20;;;;;;;15.20;13.77;;;;;;;21.92;32.10;94507.34;6135818;28;108972;-59
2023/12/13 09:19:25;;;;;;;15.40;13.90;;;;;;;21.94;32.46;94502.47;6141217;28;109076;-58
2023/12/13 09:22:30;;;;;;;14.47;13.17;;;;;;;21.93;32.08;94495.59;6160262;28;109087;-58
2023/12/13 09:25:33;;;;;;;15.00;13.50;;;;;;;21.94;32.26;94499.81;6144233;28;109330;-58
2023/12/13 09:28:36;;;;;;;14.00;12.70;;;;;;;21.97;32.02;94477.84;6160104;28;109129;-60
2023/12/13 09:31:40;;;;;;;13.93;12.63;;;;;;;22.14;32.36;94474.34;6137381;28;109345;-59
2023/12/13 09:34:44;;;;;;;14.90;13.60;;;;;;;22.26;32.73;94474.47;6140915;28;109172;-59
2023/12/13 09:37:47;;;;;;;13.43;12.13;;;;;;;22.34;32.32;94473.63;6138096;28;110927;-60
2023/12/13 09:40:51;;;;;;;14.10;12.80;;;;;;;22.34;32.49;94468.31;6150981;28;109492;-59
2023/12/13 09:43:55;;;;;;;13.77;12.57;;;;;;;22.19;32.78;94500.06;6136679;28;109714;-59
2023/12/13 09:47:03;;;;;;;14.43;13.10;;;;;;;22.11;32.73;94491.00;6130948;28;110134;-59
2023/12/13 09:50:08;;;;;;;13.77;12.57;;;;;;;22.05;32.58;94469.06;6144059;28;109468;-59
2023/12/13 09:53:12;;;;;;;14.17;12.87;;;;;;;22.03;33.04;94449.97;6135326;28;109367;-59
2023/12/13 09:56:16;;;;;;;13.50;12.27;;;;;;;22.04;32.88;94464.84;6137158;28;109063;-59
2023/12/13 09:59:19;;;;;;;13.60;12.40;;;;;;;22.01;32.77;94438.84;6130288;28;109232;-58
2023/12/13 10:02:23;;;;;;;12.53;11.50;;;;;;;22.02;32.91;94452.94;6163968;28;109463;-58
2023/12/13 10:05:29;;;;;;;14.40;13.10;;;;;;;22.00;32.87;94453.25;6159007;28;109458;-58
2023/12/13 10:08:32;;;;;;;13.50;12.20;;;;;;;22.00;32.96;94436.47;6163065;28;109134;-58
2023/12/13 10:11:35;;;;;;;13.03;11.73;;;;;;;21.99;32.83;94426.91;6152124;28;109128;-59
2023/12/13 10:14:39;;;;;;;12.40;11.30;;;;;;;21.98;32.59;94409.38;6159896;28;109127;-58
2023/12/13 10:17:43;;;;;;;12.90;11.77;;;;;;;21.98;32.70;94423.47;6164120;28;110972;-58
2023/12/13 10:20:47;;;;;;;13.13;11.93;;;;;;;21.98;32.93;94398.72;6159738;28;109366;-60
2023/12/13 10:23:50;;;;;;;12.53;11.40;;;;;;;21.96;32.88;94393.72;6153081;28;109466;-58
2023/12/13 10:26:53;;;;;;;13.60;12.20;;;;;;;21.96;32.89;94383.06;6158567;28;109012;-58
2023/12/13 10:29:56;;;;;;;12.50;11.10;;;;;;;21.97;32.40;94381.19;6139665;28;110061;-59
2023/12/13 10:33:01;;;;;;;13.40;12.00;;;;;;;21.96;32.81;94377.72;6128390;28;109343;-59
2023/12/13 10:36:05;;;;;;;12.23;11.03;;;;;;;21.95;32.73;94356.75;6150212;28;109830;-58
2023/12/13 10:39:12;;;;;;;11.90;10.80;;;;;;;21.96;32.68;94352.97;6163403;28;110153;-59
2023/12/13 10:42:17;;;;;;;12.53;11.43;;;;;;;21.97;32.61;94338.56;6145846;28;109161;-59
2023/12/13 10:45:23;;;;;;;12.30;11.20;;;;;;;21.97;32.53;94333.22;6141810;28;111902;-59
2023/12/13 10:48:33;;;;;;;11.40;10.33;;;;;;;21.96;32.50;94323.66;6148791;28;109141;-59
2023/12/13 10:51:37;;;;;;;12.50;11.40;;;;;;;21.95;32.68;94328.22;6156422;28;109073;-59
2023/12/13 10:54:42;;;;;;;12.60;10.93;;;;;;;21.96;32.52;94329.78;6152781;28;109350;-59
2023/12/13 10:57:46;;;;;;;12.27;11.17;;;;;;;21.98;32.70;94327.56;6145586;28;108912;-58
2023/12/13 11:00:49;;;;;;;12.00;10.90;;;;;;;21.97;32.45;94326.00;6149263;28;110131;-59
2023/12/13 11:04:02;;;;;;;11.40;10.33;;;;;;;21.97;32.88;94325.22;6155489;28;110091;-59
2023/12/13 11:07:06;;;;;;;12.00;10.90;;;;;;;21.95;32.78;94320.22;6145187;28;109278;-58
2023/12/13 11:10:15;;;;;;;12.00;10.90;;;;;;;21.95;32.87;94322.91;6143445;28;109054;-58
2023/12/13 11:13:23;;;;;;;12.23;11.03;;;;;;;21.95;33.04;94311.47;6147551;28;109069;-60
2023/12/13 11:16:27;;;;;;;12.83;11.30;;;;;;;21.94;32.74;94304.56;6138804;28;110161;-59
2023/12/13 11:19:32;;;;;;;13.17;11.90;;;;;;;21.94;32.75;94312.56;6127062;28;108855;-59
2023/12/13 11:22:36;;;;;;;13.40;12.20;;;;;;;21.93;32.79;94293.13;6137694;28;109044;-59
2023/12/13 11:25:39;;;;;;;12.27;11.17;;;;;;;21.90;33.11;94299.13;6153948;28;109255;-59
2023/12/13 11:28:49;;;;;;;12.03;10.93;;;;;;;21.91;32.96;94299.88;6147624;28;109167;-59
2023/12/13 11:31:54;;;;;;;12.43;11.33;;;;;;;21.90;32.62;94285.78;6146234;28;109119;-59
2023/12/13 11:34:59;;;;;;;12.43;11.23;;;;;;;21.90;33.08;94290.34;6157787;28;109244;-59
2023/12/13 11:38:03;;;;;;;12.40;11.20;;;;;;;21.90;32.74;94291.13;6160738;28;109145;-59
2023/12/13 11:41:06;;;;;;;11.83;10.73;;;;;;;21.92;33.15;94282.81;6151641;28;109221;-60
2023/12/13 11:44:11;;;;;;;12.13;11.03;;;;;;;21.91;32.88;94275.91;6156625;28;109414;-59
2023/12/13 11:47:15;;;;;;;12.30;11.20;;;;;;;21.91;33.03;94278.59;6161337;28;109269;-60
2023/12/13 11:50:21;;;;;;;12.60;11.40;;;;;;;21.93;32.97;94266.50;6161704;28;109099;-59
2023/12/13 11:53:24;;;;;;;12.00;10.90;;;;;;;21.93;32.98;94266.50;6149988;28;110186;-59
2023/12/13 11:56:27;;;;;;;11.63;10.53;;;;;;;21.93;32.69;94261.16;6158291;28;109072;-60
2023/12/13 11:59:30;;;;;;;12.37;11.17;;;;;;;21.95;33.09;94272.28;6141221;28;109302;-59
2023/12/13 12:02:33;;;;;;;11.90;10.80;;;;;;;21.96;32.64;94276.50;6159079;28;109528;-59
2023/12/13 12:05:38;;;;;;;11.90;10.80;;;;;;;21.97;33.03;94263.97;6149319;28;110217;-59
2023/12/13 12:08:41;;;;;;;11.97;10.87;;;;;;;21.96;32.62;94271.16;6160019;28;109158;-59
2023/12/13 12:11:44;;;;;;;11.37;10.27;;;;;;;21.96;32.80;94257.84;6160242;28;109122;-58
2023/12/13 12:14:49;;;;;;;12.03;10.93;;;;;;;21.96;32.59;94268.50;6145144;28;110005;-59
2023/12/13 12:17:54;;;;;;;12.23;11.00;;;;;;;21.97;32.68;94248.75;6131342;28;109143;-59
2023/12/13 12:20:59;;;;;;;10.13;9.20;;;;;;;21.99;32.46;94262.53;6144691;28;109056;-58
2023/12/13 12:24:03;;;;;;;11.57;10.53;;;;;;;21.98;32.66;94266.31;6154983;28;109304;-59
2023/12/13 12:27:11;;;;;;;10.13;9.23;;;;;;;21.97;33.21;94251.41;6142638;28;109167;-59
2023/12/13 12:30:17;;;;;;;10.50;9.50;;;;;;;22.01;33.78;94268.34;6138692;28;109422;-58
2023/12/13 12:33:20;;;;;;;11.40;10.30;;;;;;;22.15;33.29;94253.97;6159731;28;109426;-60
2023/12/13 12:36:26;;;;;;;10.67;9.67;;;;;;;22.19;33.03;94230.91;6159131;28;109302;-59
2023/12/13 12:39:29;;;;;;;10.33;9.43;;;;;;;22.21;33.06;94252.69;6147148;28;110021;-58
2023/12/13 12:42:32;;;;;;;10.13;9.10;;;;;;;22.20;33.31;94238.56;6141720;28;109066;-58
2023/12/13 12:45:36;;;;;;;9.73;8.90;;;;;;;22.17;33.62;94214.44;6151617;28;109436;-57
2023/12/13 12:48:40;;;;;;;10.83;9.83;;;;;;;22.19;33.54;94223.69;6144220;28;109469;-59
2023/12/13 12:51:44;;;;;;;10.33;9.27;;;;;;;22.19;33.29;94214.91;6143194;28;111793;-58
2023/12/13 12:54:47;;;;;;;9.87;9.00;;;;;;;22.21;33.63;94220.69;6147805;28;111567;-58
2023/12/13 12:57:51;;;;;;;9.57;8.70;;;;;;;22.21;33.72;94232.13;6152144;28;109087;-61
2023/12/13 13:00:54;;;;;;;9.83;8.93;;;;;;;22.11;33.43;94227.19;6131912;28;109384;-59
2023/12/13 13:03:57;;;;;;;9.97;9.07;;;;;;;22.07;33.88;94226.28;6155792;28;109313;-59
2023/12/13 13:07:03;;;;;;;9.30;8.40;;;;;;;22.04;33.73;94238.38;6160089;28;109131;-59
2023/12/13 13:10:10;;;;;;;9.27;8.40;;;;;;;22.01;33.72;94228.38;6159288;28;109051;-59
2023/12/13 13:13:13;;;;;;;10.00;9.00;;;;;;;21.98;33.84;94220.22;6137822;28;109564;-59
2023/12/13 13:16:20;;;;;;;9.33;8.53;;;;;;;21.97;33.46;94238.09;6142895;28;109243;-59
2023/12/13 13:19:24;;;;;;;9.17;8.27;;;;;;;21.95;33.44;94250.19;6143078;28;109163;-59
2023/12/13 13:22:30;;;;;;;9.30;8.50;;;;;;;21.95;33.65;94221.66;6151932;28;109138;-59
2023/12/13 13:25:33;;;;;;;9.60;8.70;;;;;;;21.95;33.50;94228.88;6143959;28;109567;-59
2023/12/13 13:28:36;;;;;;;9.37;8.57;;;;;;;21.93;33.58;94253.19;6159619;28;109050;-59
2023/12/13 13:31:40;;;;;;;9.20;8.03;;;;;;;21.93;33.73;94244.41;6153562;28;109038;-59
2023/12/13 13:34:43;;;;;;;8.77;7.87;;;;;;;21.93;33.24;94245.19;6136244;28;110990;-60
2023/12/13 13:37:47;;;;;;;8.17;7.47;;;;;;;21.91;33.85;94234.06;6135482;28;109473;-59
2023/12/13 13:40:51;;;;;;;8.93;8.13;;;;;;;21.90;33.40;94226.41;6141691;28;109043;-59
2023/12/13 13:43:54;;;;;;;8.37;7.53;;;;;;;21.91;33.23;94214.66;6156559;28;109838;-59
2023/12/13 13:46:57;;;;;;;9.00;8.10;;;;;;;21.91;33.51;94217.31;6139990;28;109563;-60
2023/12/13 13:50:00;;;;;;;9.30;8.50;;;;;;;21.91;33.48;94202.13;6142527;28;109106;-59
2023/12/13 13:53:05;;;;;;;10.13;8.80;;;;;;;21.90;33.73;94183.78;6159330;28;109112;-59
2023/12/13 13:56:09;;;;;;;8.30;7.40;;;;;;;21.90;33.50;94211.22;6145204;28;109310;-60
2023/12/13 13:59:12;;;;;;;8.03;7.40;;;;;;;21.89;33.26;94212.31;6139092;28;109377;-59
2023/12/13 14:02:31;;;;;;;8.23;7.53;;;;;;;21.89;33.49;94220.31;6152920;28;110051;-59
2023/12/13 14:05:35;;;;;;;8.40;7.60;;;;;;;21.89;33.43;94192.91;6143074;28;109760;-59